Time;durP1;ratioP1;P1;durP2;ratioP2;P2;SDS_P1;SDS_P2;PMS_P1;PMS_P2;Temp;Humidity;BMP_temperature;BMP_pressure;BME280_temperature;BME280_humidity;BME280_pressure;Samples;Min_cycle;Max_cycle;Signal;HPM_P1;HPM_P2
2023/02/03 00:01:40;;;;;;;8.50;2.60;;;9.40;99.90;;;;;;5081257;28;20466;-43
2023/02/03 00:04:05;;;;;;;13.30;3.20;;;9.40;99.90;;;;;;5081208;28;20024;-42
2023/02/03 00:06:31;;;;;;;14.82;2.92;;;9.40;99.90;;;;;;5079830;28;20094;-43
2023/02/03 00:08:58;;;;;;;6.70;2.35;;;9.40;99.90;;;;;;5081062;28;20090;-43
2023/02/03 00:11:24;;;;;;;10.40;3.53;;;9.40;99.90;;;;;;5080740;28;20039;-42
2023/02/03 00:13:50;;;;;;;11.13;2.70;;;9.40;99.90;;;;;;5080240;28;20147;-42
2023/02/03 00:16:15;;;;;;;9.38;2.70;;;9.40;99.90;;;;;;5080841;28;20036;-43
2023/02/03 00:18:41;;;;;;;8.75;2.80;;;9.40;99.90;;;;;;5080649;28;20119;-43
2023/02/03 00:21:06;;;;;;;11.32;3.03;;;9.40;99.90;;;;;;5079541;28;20030;-43
2023/02/03 00:23:32;;;;;;;9.88;2.50;;;9.40;99.90;;;;;;5080514;28;20031;-44
2023/02/03 00:26:09;;;;;;;12.60;3.15;;;9.40;99.90;;;;;;5080282;28;20099;-43
2023/02/03 00:28:34;;;;;;;8.77;3.30;;;9.40;99.90;;;;;;5080771;28;20143;-42
2023/02/03 00:31:00;;;;;;;12.05;3.50;;;9.40;99.90;;;;;;5080892;28;20169;-43
2023/02/03 00:33:25;;;;;;;11.38;3.22;;;9.40;99.90;;;;;;5079925;28;20028;-43
2023/02/03 00:35:51;;;;;;;10.60;2.45;;;9.40;99.90;;;;;;5080030;28;20113;-42
2023/02/03 00:38:16;;;;;;;12.93;3.30;;;9.50;99.90;;;;;;5080737;28;20040;-43
2023/02/03 00:40:42;;;;;;;9.40;2.17;;;9.50;99.90;;;;;;5079466;28;20547;-43
2023/02/03 00:43:07;;;;;;;19.17;5.05;;;9.50;99.90;;;;;;5080883;28;20024;-43
2023/02/03 00:45:33;;;;;;;10.80;2.42;;;9.50;99.90;;;;;;5080622;28;20043;-43
2023/02/03 00:47:58;;;;;;;8.30;2.33;;;9.50;99.90;;;;;;5079447;28;20035;-42
2023/02/03 00:50:24;;;;;;;8.52;3.03;;;9.50;99.90;;;;;;5080934;28;20082;-43
2023/02/03 00:52:49;;;;;;;9.88;2.55;;;9.50;99.90;;;;;;5080106;28;20794;-43
2023/02/03 00:55:15;;;;;;;9.20;2.72;;;9.50;99.90;;;;;;5080013;28;20023;-43
2023/02/03 00:57:41;;;;;;;7.68;2.50;;;9.50;99.90;;;;;;5080763;28;20642;-43
2023/02/03 01:00:07;;;;;;;9.23;2.63;;;9.50;99.90;;;;;;5080459;28;20482;-42
2023/02/03 01:02:32;;;;;;;12.93;3.22;;;9.50;99.90;;;;;;5079970;28;20457;-44
2023/02/03 01:04:58;;;;;;;11.25;2.92;;;9.60;99.90;;;;;;5080427;28;20031;-43
2023/02/03 01:07:23;;;;;;;11.80;3.05;;;9.60;99.90;;;;;;5080294;28;20038;-42
2023/02/03 01:09:49;;;;;;;11.20;2.90;;;9.50;99.90;;;;;;5079489;28;20032;-43
2023/02/03 01:12:15;;;;;;;9.38;2.90;;;9.50;99.90;;;;;;5081229;28;20024;-43
2023/02/03 01:14:40;;;;;;;12.43;3.72;;;9.60;99.90;;;;;;5080686;28;20027;-43
2023/02/03 01:17:06;;;;;;;10.20;3.28;;;9.60;99.90;;;;;;5082567;28;20024;-43
2023/02/03 01:19:31;;;;;;;10.60;3.42;;;9.60;99.90;;;;;;5084716;28;20070;-44
2023/02/03 01:21:57;;;;;;;12.93;3.30;;;9.60;99.90;;;;;;5083603;28;20044;-43
2023/02/03 01:24:22;;;;;;;9.88;3.08;;;9.60;99.90;;;;;;5083499;28;20016;-43
2023/02/03 01:26:48;;;;;;;11.98;3.30;;;9.60;99.90;;;;;;5083292;28;20089;-43
2023/02/03 01:29:13;;;;;;;10.77;3.08;;;9.70;99.90;;;;;;5082998;28;20135;-43
2023/02/03 01:31:41;;;;;;;8.73;2.95;;;9.70;99.90;;;;;;5084057;28;20484;-44
2023/02/03 01:34:10;;;;;;;10.85;4.05;;;9.60;99.90;;;;;;5083962;28;20028;-44
2023/02/03 01:36:36;;;;;;;11.80;3.30;;;9.60;99.90;;;;;;5082517;28;20063;-44
2023/02/03 01:39:03;;;;;;;11.38;2.65;;;9.60;99.90;;;;;;5083145;28;20330;-42
2023/02/03 01:41:32;;;;;;;7.38;3.25;;;9.60;99.90;;;;;;5083267;28;20033;-43
2023/02/03 01:43:59;;;;;;;8.13;2.63;;;9.60;99.90;;;;;;5082339;28;20024;-44
2023/02/03 01:46:34;;;;;;;9.45;2.95;;;9.60;99.90;;;;;;5083430;28;20028;-43
2023/02/03 01:49:23;;;;;;;13.25;2.70;;;9.60;99.90;;;;;;5082779;28;20455;-42
2023/02/03 01:51:52;;;;;;;7.82;3.38;;;9.60;99.90;;;;;;5082977;28;20459;-42
2023/02/03 01:54:24;;;;;;;7.07;2.35;;;9.60;99.90;;;;;;5083885;28;20538;-43
2023/02/03 01:56:55;;;;;;;12.02;3.13;;;9.60;99.90;;;;;;5083119;28;20391;-42
2023/02/03 01:59:22;;;;;;;9.75;2.90;;;9.60;99.90;;;;;;5082924;28;20043;-42
2023/02/03 02:01:50;;;;;;;10.75;2.80;;;9.60;99.90;;;;;;5083051;28;20036;-43
2023/02/03 02:04:15;;;;;;;11.52;2.90;;;9.70;99.90;;;;;;5082211;28;20062;-43
2023/02/03 02:06:41;;;;;;;8.65;2.58;;;9.60;99.90;;;;;;5082726;28;20899;-42
2023/02/03 02:09:07;;;;;;;12.05;2.40;;;9.60;99.90;;;;;;5083160;28;20020;-43
2023/02/03 02:11:33;;;;;;;7.57;2.30;;;9.60;99.90;;;;;;5082130;28;20040;-43
2023/02/03 02:14:01;;;;;;;9.35;2.55;;;9.60;99.90;;;;;;5082741;28;20024;-42
2023/02/03 02:16:48;;;;;;;9.05;2.50;;;9.70;99.90;;;;;;5083121;28;20034;-42
2023/02/03 02:19:58;;;;;;;12.32;3.20;;;9.60;99.90;;;;;;5081064;28;20135;-44
2023/02/03 02:22:55;;;;;;;6.88;2.35;;;9.60;99.90;;;;;;5076243;28;20166;-43
2023/02/03 02:25:29;;;;;;;5.82;2.42;;;9.60;99.90;;;;;;5082552;28;20024;-43
2023/02/03 02:28:22;;;;;;;8.63;2.22;;;9.60;99.90;;;;;;5082908;28;20040;-43
2023/02/03 02:31:09;;;;;;;7.78;2.17;;;9.60;99.90;;;;;;5083083;28;20104;-43
2023/02/03 02:34:07;;;;;;;9.45;2.85;;;9.60;99.90;;;;;;5082069;28;20038;-44
2023/02/03 02:36:52;;;;;;;7.75;2.15;;;9.60;99.90;;;;;;5036801;28;20063;-43
2023/02/03 02:39:26;;;;;;;8.88;2.50;;;9.60;99.90;;;;;;5082460;28;20468;-44
2023/02/03 02:41:59;;;;;;;11.27;2.50;;;9.60;99.90;;;;;;5082025;28;20101;-43
2023/02/03 02:44:32;;;;;;;10.52;2.40;;;9.60;99.90;;;;;;5083145;28;20058;-43
2023/02/03 02:47:04;;;;;;;9.25;2.70;;;9.60;99.90;;;;;;5081506;28;20076;-43
2023/02/03 02:49:59;;;;;;;9.83;3.20;;;9.60;99.90;;;;;;5082425;28;20020;-42
2023/02/03 02:52:28;;;;;;;10.07;2.50;;;9.60;99.90;;;;;;5081974;28;20258;-42
2023/02/03 02:54:59;;;;;;;6.30;2.15;;;9.70;99.90;;;;;;5081522;28;20548;-42
2023/02/03 02:57:27;;;;;;;9.25;2.58;;;9.70;99.90;;;;;;5082599;28;20024;-42
2023/02/03 02:59:53;;;;;;;10.00;2.10;;;9.70;99.90;;;;;;5082227;28;20028;-42
2023/02/03 03:02:19;;;;;;;8.70;2.22;;;9.70;99.90;;;;;;5081427;28;20077;-42
2023/02/03 03:04:48;;;;;;;5.53;2.03;;;9.70;99.90;;;;;;5081985;28;20032;-42
2023/02/03 03:07:18;;;;;;;9.50;2.22;;;9.70;99.90;;;;;;5081433;28;20032;-43
2023/02/03 03:09:51;;;;;;;7.72;2.10;;;9.70;99.90;;;;;;5081066;28;20028;-42
2023/02/03 03:12:30;;;;;;;7.82;2.03;;;9.80;99.90;;;;;;5081525;28;20032;-43
2023/02/03 03:15:00;;;;;;;7.43;2.13;;;9.70;99.90;;;;;;5080897;28;20016;-43
2023/02/03 03:17:30;;;;;;;9.55;3.33;;;9.80;99.90;;;;;;5081404;28;20478;-43
2023/02/03 03:20:07;;;;;;;10.52;2.42;;;9.80;99.90;;;;;;5082141;28;20032;-43
2023/02/03 03:22:42;;;;;;;8.10;2.88;;;9.70;99.90;;;;;;5081059;28;20036;-42
2023/02/03 03:25:14;;;;;;;7.90;2.42;;;9.70;99.90;;;;;;5081824;28;20024;-42
2023/02/03 03:27:47;;;;;;;6.55;2.33;;;9.80;99.90;;;;;;5081168;28;20055;-43
2023/02/03 03:30:15;;;;;;;;;;;9.80;99.90;;;;;;5079838;28;20020;-43
2023/02/03 03:32:41;;;;;;;8.05;2.00;;;9.80;99.90;;;;;;5078113;28;20403;-43
2023/02/03 03:35:07;;;;;;;8.63;2.17;;;9.70;99.90;;;;;;5080571;28;20100;-43
2023/02/03 03:37:55;;;;;;;6.90;2.10;;;9.70;99.90;;;;;;5080610;28;20020;-44
2023/02/03 03:40:30;;;;;;;10.48;2.35;;;9.80;99.90;;;;;;5081398;28;20147;-44
2023/02/03 03:43:00;;;;;;;7.82;2.58;;;9.80;99.90;;;;;;5080489;28;20036;-43
2023/02/03 03:45:40;;;;;;;7.85;2.13;;;9.70;99.90;;;;;;5081958;28;20028;-43
2023/02/03 03:48:08;;;;;;;5.43;2.03;;;9.80;99.90;;;;;;5080816;28;20020;-43
2023/02/03 03:50:40;;;;;;;6.78;2.53;;;9.80;99.90;;;;;;5080495;28;20038;-43
2023/02/03 03:53:08;;;;;;;6.93;2.50;;;9.80;99.90;;;;;;5080376;28;20020;-42
2023/02/03 03:55:35;;;;;;;9.20;2.55;;;9.80;99.90;;;;;;5080571;28;20483;-42
2023/02/03 03:58:06;;;;;;;6.25;2.60;;;9.80;99.90;;;;;;5080353;28;20023;-42
2023/02/03 04:00:35;;;;;;;13.20;3.40;;;9.80;99.90;;;;;;5080949;28;20040;-43
2023/02/03 04:03:14;;;;;;;9.48;2.50;;;9.80;99.90;;;;;;5080642;28;20036;-43
2023/02/03 04:05:40;;;;;;;8.18;2.58;;;9.80;99.90;;;;;;5080286;28;20020;-43
2023/02/03 04:08:06;;;;;;;10.43;2.38;;;9.90;99.90;;;;;;5080672;28;20024;-42
2023/02/03 04:10:34;;;;;;;6.47;1.98;;;9.90;99.90;;;;;;5081122;28;20016;-42
2023/02/03 04:13:00;;;;;;;9.40;2.92;;;9.90;99.90;;;;;;5080340;28;20803;-42
2023/02/03 04:15:27;;;;;;;8.73;2.50;;;9.90;99.90;;;;;;5081194;28;20077;-43
2023/02/03 04:17:53;;;;;;;7.32;2.20;;;9.90;99.90;;;;;;5080442;28;20702;-43
2023/02/03 04:20:19;;;;;;;10.15;2.78;;;9.90;99.90;;;;;;5080914;28;20070;-43
2023/02/03 04:22:46;;;;;;;8.45;2.50;;;9.90;99.90;;;;;;5081074;28;20028;-43
2023/02/03 04:25:11;;;;;;;10.02;2.47;;;9.90;99.90;;;;;;5079833;28;20374;-42
2023/02/03 04:27:37;;;;;;;12.65;2.72;;;9.90;99.90;;;;;;5080202;28;20027;-43
2023/02/03 04:30:04;;;;;;;7.40;2.55;;;9.90;99.90;;;;;;5080060;28;20395;-44
2023/02/03 04:32:29;;;;;;;13.15;2.70;;;9.90;99.90;;;;;;5079484;28;20390;-41
2023/02/03 04:34:56;;;;;;;8.88;2.47;;;9.90;99.90;;;;;;5079645;28;20032;-42
2023/02/03 04:37:22;;;;;;;8.77;2.22;;;9.90;99.90;;;;;;5080403;28;20024;-42
2023/02/03 04:39:50;;;;;;;9.65;2.47;;;9.90;99.90;;;;;;5079081;28;20480;-42
2023/02/03 04:42:16;;;;;;;9.75;2.78;;;9.90;99.90;;;;;;5080975;28;20055;-43
2023/02/03 04:44:42;;;;;;;10.90;2.70;;;9.90;99.90;;;;;;5079915;28;20020;-43
2023/02/03 04:47:07;;;;;;;8.27;2.10;;;9.90;99.90;;;;;;5079813;28;20024;-43
2023/02/03 04:49:33;;;;;;;9.13;2.20;;;9.90;99.90;;;;;;5080908;28;20016;-43
2023/02/03 04:51:59;;;;;;;14.25;2.10;;;9.90;99.90;;;;;;5084445;28;20081;-43
2023/02/03 04:54:24;;;;;;;10.88;2.28;;;10.00;99.90;;;;;;5083839;28;20028;-43
2023/02/03 04:56:50;;;;;;;7.30;2.05;;;9.90;99.90;;;;;;5084456;28;20115;-42
2023/02/03 04:59:15;;;;;;;10.90;2.90;;;10.00;99.90;;;;;;5083958;28;20027;-43
2023/02/03 05:01:41;;;;;;;8.77;1.95;;;9.90;99.90;;;;;;5083607;28;20870;-42
2023/02/03 05:04:06;;;;;;;8.90;2.20;;;10.00;99.90;;;;;;5084587;28;20099;-42
2023/02/03 05:06:32;;;;;;;13.13;3.28;;;10.00;99.90;;;;;;5083900;28;20083;-43
2023/02/03 05:08:58;;;;;;;8.13;2.30;;;10.00;99.90;;;;;;5083739;28;20462;-42
2023/02/03 05:11:24;;;;;;;10.15;2.47;;;10.00;99.90;;;;;;5084334;28;20074;-42
2023/02/03 05:13:49;;;;;;;7.80;2.03;;;10.00;99.90;;;;;;5083777;28;20035;-43
2023/02/03 05:16:15;;;;;;;8.75;2.05;;;10.00;99.90;;;;;;5083689;28;20077;-43
2023/02/03 05:18:41;;;;;;;10.40;2.40;;;10.00;99.90;;;;;;5084027;28;20464;-43
2023/02/03 05:21:06;;;;;;;9.57;2.22;;;10.00;99.90;;;;;;5084419;28;20039;-42
2023/02/03 05:23:32;;;;;;;6.95;2.10;;;10.00;99.90;;;;;;5083305;28;20036;-43
2023/02/03 05:25:58;;;;;;;9.27;2.10;;;10.00;99.90;;;;;;5083775;28;20159;-43
2023/02/03 05:28:23;;;;;;;10.85;2.33;;;10.00;99.90;;;;;;5083524;28;20897;-46
2023/02/03 05:30:49;;;;;;;7.57;1.92;;;10.00;99.90;;;;;;5083165;28;20551;-42
2023/02/03 05:33:15;;;;;;;8.50;2.05;;;10.00;99.90;;;;;;5083558;28;20108;-43
2023/02/03 05:35:40;;;;;;;10.10;2.20;;;10.00;99.90;;;;;;5082468;28;20080;-43
2023/02/03 05:38:06;;;;;;;6.15;1.92;;;10.00;99.90;;;;;;5083715;28;20063;-43
2023/02/03 05:43:16;;;;;;;10.88;2.10;;;10.00;99.90;;;;;;5079988;28;20849;-43
2023/02/03 05:45:41;;;;;;;11.32;2.05;;;10.00;99.90;;;;;;5083300;28;20028;-43
2023/02/03 05:48:07;;;;;;;8.70;2.22;;;10.00;99.90;;;;;;5083185;28;20039;-44
2023/02/03 05:50:33;;;;;;;7.95;2.00;;;10.00;99.90;;;;;;5083429;28;20031;-44
2023/02/03 05:52:59;;;;;;;6.43;1.90;;;10.00;99.90;;;;;;5083104;28;20877;-43
2023/02/03 05:55:27;;;;;;;8.85;2.10;;;10.00;99.90;;;;;;5083081;28;20472;-43
2023/02/03 05:57:52;;;;;;;8.52;2.05;;;10.00;99.90;;;;;;5081742;28;20020;-43
2023/02/03 06:00:20;;;;;;;8.30;2.05;;;10.00;99.90;;;;;;5083886;28;20039;-43
2023/02/03 06:02:50;;;;;;;9.38;2.00;;;10.00;99.90;;;;;;5082155;28;20089;-44
2023/02/03 06:05:16;;;;;;;7.82;2.03;;;10.00;99.90;;;;;;5082363;28;20032;-42
2023/02/03 06:07:41;;;;;;;11.48;2.50;;;10.00;99.90;;;;;;5082813;28;20462;-43
2023/02/03 06:10:07;;;;;;;6.93;2.50;;;10.00;99.90;;;;;;5083178;28;20024;-43
2023/02/03 06:12:33;;;;;;;10.00;2.20;;;10.00;99.90;;;;;;5082458;28;20016;-43
2023/02/03 06:14:58;;;;;;;7.22;2.25;;;10.00;99.90;;;;;;5083092;28;20028;-44
2023/02/03 06:17:27;;;;;;;10.48;2.42;;;10.00;99.90;;;;;;5083194;28;20023;-43
2023/02/03 06:19:52;;;;;;;10.13;2.38;;;10.00;99.90;;;;;;5072304;28;20744;-44
2023/02/03 06:22:18;;;;;;;8.90;2.63;;;10.00;99.90;;;;;;5083129;28;20036;-44
2023/02/03 06:24:45;;;;;;;9.07;2.30;;;10.00;99.90;;;;;;5082168;28;20030;-43
2023/02/03 06:27:11;;;;;;;7.25;2.60;;;10.00;99.90;;;;;;5082587;28;20480;-45
2023/02/03 06:29:36;;;;;;;6.47;1.95;;;9.90;99.90;;;;;;5082277;28;20024;-42
2023/02/03 06:32:02;;;;;;;10.13;2.10;;;9.90;99.90;;;;;;5082188;28;20035;-42
2023/02/03 06:34:27;;;;;;;8.85;2.60;;;10.00;99.90;;;;;;5082243;28;20023;-43
2023/02/03 06:36:53;;;;;;;10.18;2.05;;;9.90;99.90;;;;;;5083414;28;20067;-44
2023/02/03 06:39:19;;;;;;;8.32;2.22;;;9.90;99.90;;;;;;5082110;28;20062;-43
2023/02/03 06:41:44;;;;;;;7.82;2.30;;;9.90;99.90;;;;;;5081194;28;20163;-43
2023/02/03 06:44:10;;;;;;;11.25;3.17;;;9.90;99.90;;;;;;5082193;28;20065;-43
2023/02/03 06:46:36;;;;;;;11.68;2.30;;;9.90;99.90;;;;;;5081490;28;20028;-43
2023/02/03 06:49:01;;;;;;;6.88;2.05;;;9.90;99.90;;;;;;5082083;28;20035;-44
2023/02/03 06:51:27;;;;;;;8.93;2.45;;;9.90;99.90;;;;;;5083024;28;20031;-43
2023/02/03 06:53:52;;;;;;;8.70;2.28;;;9.90;99.90;;;;;;5081732;28;20016;-43
2023/02/03 06:56:18;;;;;;;10.23;2.25;;;9.90;99.90;;;;;;5082035;28;20626;-42
2023/02/03 06:58:44;;;;;;;9.20;2.30;;;9.90;99.90;;;;;;5081778;28;20397;-43
2023/02/03 07:01:09;;;;;;;9.77;2.17;;;9.90;99.90;;;;;;5081819;28;20035;-42
2023/02/03 07:03:35;;;;;;;12.60;2.60;;;9.90;99.90;;;;;;5082049;28;20074;-43
2023/02/03 07:06:00;;;;;;;10.40;2.30;;;9.90;99.90;;;;;;5082387;28;20016;-43
2023/02/03 07:08:26;;;;;;;7.70;2.17;;;9.90;99.90;;;;;;5081237;28;20096;-43
2023/02/03 07:10:55;;;;;;;11.68;2.72;;;9.90;99.90;;;;;;5081368;28;20077;-44
2023/02/03 07:13:20;;;;;;;6.72;1.90;;;9.90;99.90;;;;;;5081323;28;20035;-43
2023/02/03 07:15:46;;;;;;;11.52;2.47;;;9.90;99.90;;;;;;5080935;28;20028;-43
2023/02/03 07:18:11;;;;;;;9.93;2.60;;;9.90;99.90;;;;;;5082596;28;20038;-44
2023/02/03 07:20:37;;;;;;;8.57;2.38;;;9.90;99.90;;;;;;5081697;28;20074;-44
2023/02/03 07:23:03;;;;;;;11.35;2.47;;;9.90;99.90;;;;;;5080802;28;20039;-44
2023/02/03 07:25:30;;;;;;;7.22;2.45;;;9.90;99.90;;;;;;5081722;28;20034;-44
2023/02/03 07:27:55;;;;;;;8.30;2.47;;;9.80;99.90;;;;;;5080601;28;20047;-44
2023/02/03 07:30:21;;;;;;;8.98;2.38;;;9.80;99.90;;;;;;5081421;28;20099;-42
2023/02/03 07:32:48;;;;;;;12.98;2.92;;;9.80;99.90;;;;;;5082040;28;20290;-43
2023/02/03 07:35:21;;;;;;;10.23;2.33;;;9.90;99.90;;;;;;5057654;28;20439;-33
2023/02/03 07:37:46;;;;;;;7.68;2.00;;;9.90;99.90;;;;;;5058041;28;20114;-33
2023/02/03 07:40:13;;;;;;;10.15;2.47;;;9.90;99.90;;;;;;5058153;28;20040;-34
2023/02/03 07:42:43;;;;;;;7.95;2.40;;;9.90;99.90;;;;;;5057781;28;20052;-33
2023/02/03 07:45:10;;;;;;;9.73;2.40;;;9.90;99.90;;;;;;5057889;28;20500;-34
2023/02/03 07:47:36;;;;;;;9.05;2.60;;;9.90;99.90;;;;;;5058597;28;20025;-34
2023/02/03 07:50:02;;;;;;;13.35;3.17;;;9.90;99.90;;;;;;5057197;28;20093;-34
2023/02/03 07:52:28;;;;;;;7.40;2.75;;;9.90;99.90;;;;;;5057235;28;20485;-34
2023/02/03 07:54:53;;;;;;;9.63;2.35;;;9.90;99.90;;;;;;5057602;28;20055;-34
2023/02/03 07:57:19;;;;;;;8.13;2.55;;;9.90;99.90;;;;;;5056741;28;20106;-34
2023/02/03 07:59:44;;;;;;;13.25;2.97;;;9.90;99.90;;;;;;5057741;28;20032;-34
2023/02/03 08:02:13;;;;;;;11.13;2.60;;;9.90;99.90;;;;;;5058071;28;20863;-33
2023/02/03 08:04:38;;;;;;;7.03;2.40;;;9.90;99.90;;;;;;5037073;28;20033;-34
2023/02/03 08:07:04;;;;;;;11.50;2.95;;;10.00;99.90;;;;;;5050852;28;20700;-34
2023/02/03 08:09:30;;;;;;;8.35;2.28;;;10.00;99.90;;;;;;5056844;28;20078;-32
2023/02/03 08:11:55;;;;;;;9.18;2.58;;;10.00;99.90;;;;;;5056271;28;20021;-33
2023/02/03 08:14:21;;;;;;;9.13;2.58;;;10.00;99.90;;;;;;5057612;28;20094;-33
2023/02/03 08:16:46;;;;;;;6.65;2.40;;;10.00;99.90;;;;;;5056712;28;20021;-33
2023/02/03 08:19:12;;;;;;;5.95;2.30;;;10.00;99.90;;;;;;5056069;28;20031;-34
2023/02/03 08:21:37;;;;;;;10.32;2.60;;;10.00;99.90;;;;;;5056379;28;20021;-34
2023/02/03 08:24:03;;;;;;;7.10;2.17;;;10.10;99.90;;;;;;5056947;28;20029;-33
2023/02/03 08:26:29;;;;;;;7.82;2.17;;;10.10;99.90;;;;;;5056341;28;20538;-33
2023/02/03 08:28:55;;;;;;;7.63;2.10;;;10.10;99.90;;;;;;5056953;28;20024;-34
2023/02/03 08:31:20;;;;;;;7.50;2.05;;;10.10;99.90;;;;;;5056609;28;20025;-35
2023/02/03 08:33:46;;;;;;;10.30;2.28;;;10.20;99.90;;;;;;5056311;28;20508;-33
2023/02/03 08:36:12;;;;;;;7.53;2.45;;;10.20;99.90;;;;;;5056740;28;20024;-34
2023/02/03 08:38:38;;;;;;;8.95;2.10;;;10.20;99.90;;;;;;5054382;28;20021;-33
2023/02/03 08:41:12;;;;;;;7.57;2.33;;;10.20;99.90;;;;;;5046880;28;20049;-33
2023/02/03 08:43:39;;;;;;;6.18;2.15;;;10.20;99.90;;;;;;5052899;28;20453;-33
2023/02/03 08:46:06;;;;;;;9.30;2.60;;;10.30;99.90;;;;;;5045777;28;20071;-32
2023/02/03 08:48:32;;;;;;;8.10;2.10;;;10.30;99.90;;;;;;5043539;28;20032;-33
2023/02/03 08:50:58;;;;;;;9.52;2.30;;;10.30;99.90;;;;;;5043135;28;20025;-33
2023/02/03 08:53:24;;;;;;;8.02;2.20;;;10.30;99.90;;;;;;5042582;28;20094;-33
2023/02/03 08:55:49;;;;;;;10.15;2.75;;;10.30;99.90;;;;;;5043325;28;20029;-33
2023/02/03 08:58:15;;;;;;;6.43;2.30;;;10.40;99.90;;;;;;5043129;28;20038;-34
2023/02/03 09:00:41;;;;;;;9.40;2.67;;;10.40;99.90;;;;;;5043032;28;20492;-34
2023/02/03 09:03:06;;;;;;;8.95;1.92;;;10.40;99.90;;;;;;5043528;28;20108;-34
2023/02/03 09:05:33;;;;;;;11.15;2.60;;;10.40;99.90;;;;;;5043100;28;20028;-34
2023/02/03 09:07:58;;;;;;;7.63;2.30;;;10.50;99.90;;;;;;5041990;28;20132;-34
2023/02/03 09:10:24;;;;;;;7.03;2.20;;;10.50;99.90;;;;;;5043485;28;20448;-34
2023/02/03 09:12:49;;;;;;;9.55;2.00;;;10.50;99.90;;;;;;5042679;28;20027;-34
2023/02/03 09:15:15;;;;;;;6.85;2.00;;;10.50;99.90;;;;;;5038535;28;20764;-34
2023/02/03 09:17:41;;;;;;;7.45;2.05;;;10.50;99.90;;;;;;5042788;28;20475;-36
2023/02/03 09:20:07;;;;;;;5.90;2.05;;;10.50;99.90;;;;;;5042054;28;20036;-33
2023/02/03 09:22:33;;;;;;;7.65;2.10;;;10.60;99.90;;;;;;5042514;28;20075;-33
2023/02/03 09:24:58;;;;;;;7.07;2.10;;;10.60;99.90;;;;;;5041483;28;20762;-34
2023/02/03 09:27:24;;;;;;;6.22;2.10;;;10.60;99.90;;;;;;5022419;28;20112;-34
2023/02/03 09:29:49;;;;;;;6.40;2.22;;;10.60;99.90;;;;;;5037035;28;20036;-33
2023/02/03 09:32:15;;;;;;;6.63;2.40;;;10.70;99.90;;;;;;5042462;28;20021;-33
2023/02/03 09:34:41;;;;;;;6.55;2.28;;;10.70;99.90;;;;;;5040619;28;20052;-34
2023/02/03 09:37:07;;;;;;;10.15;2.70;;;10.70;99.90;;;;;;5041283;28;20043;-34
2023/02/03 09:39:32;;;;;;;7.50;2.25;;;10.70;99.90;;;;;;5041715;28;20033;-34
2023/02/03 09:42:06;;;;;;;5.93;2.10;;;10.70;99.90;;;;;;5041651;28;20021;-34
2023/02/03 09:44:53;;;;;;;8.40;2.17;;;10.70;99.90;;;;;;5042739;28;20576;-33
2023/02/03 09:47:26;;;;;;;6.63;1.88;;;10.80;99.90;;;;;;5043279;28;20033;-33
2023/02/03 09:50:01;;;;;;;6.38;2.47;;;10.80;99.90;;;;;;5041883;28;20055;-33
2023/02/03 09:52:39;;;;;;;8.77;2.22;;;10.90;99.90;;;;;;5042948;28;20037;-32
2023/02/03 09:55:37;;;;;;;6.28;1.77;;;10.90;99.90;;;;;;5041316;28;20123;-33
2023/02/03 09:58:07;;;;;;;8.70;2.30;;;10.90;99.90;;;;;;5040221;28;20032;-33
2023/02/03 10:00:41;;;;;;;11.07;2.42;;;10.90;99.90;;;;;;5041163;28;20108;-32
2023/02/03 10:03:17;;;;;;;7.15;2.13;;;10.90;99.90;;;;;;5041812;28;20025;-33
2023/02/03 10:06:01;;;;;;;7.15;2.22;;;10.90;99.90;;;;;;5041932;28;20059;-33
2023/02/03 10:08:51;;;;;;;6.32;2.35;;;10.90;99.90;;;;;;5041886;28;20766;-33
2023/02/03 10:11:36;;;;;;;8.13;1.88;;;11.00;99.90;;;;;;5041395;28;20028;-33
2023/02/03 10:14:11;;;;;;;8.95;1.95;;;11.00;99.90;;;;;;5022030;28;20037;-34
2023/02/03 10:16:41;;;;;;;8.55;2.30;;;10.90;99.90;;;;;;5036839;28;20044;-35
2023/02/03 10:19:14;;;;;;;7.63;2.38;;;11.00;99.90;;;;;;5041532;28;20029;-34
2023/02/03 10:21:39;;;;;;;;;;;11.00;99.90;;;;;;5041412;28;20473;-33
2023/02/03 10:24:11;;;;;;;7.45;2.22;;;11.00;99.90;;;;;;5041544;28;19908;-34
2023/02/03 10:26:38;;;;;;;12.15;2.40;;;11.00;99.90;;;;;;5041491;28;20039;-34
2023/02/03 10:29:18;;;;;;;8.48;1.80;;;11.00;99.90;;;;;;5041267;28;20064;-34
2023/02/03 10:31:46;;;;;;;5.38;1.65;;;11.00;99.90;;;;;;5040746;28;20656;-33
2023/02/03 10:34:13;;;;;;;6.32;2.20;;;11.10;99.90;;;;;;5040438;28;20084;-32
2023/02/03 10:36:42;;;;;;;6.18;2.10;;;11.10;99.90;;;;;;5040976;28;20822;-33
2023/02/03 10:39:21;;;;;;;5.72;1.90;;;11.10;99.90;;;;;;5040769;28;20035;-33
2023/02/03 10:41:47;;;;;;;6.13;1.85;;;11.10;99.90;;;;;;5041277;28;20056;-34
2023/02/03 10:44:14;;;;;;;6.15;1.55;;;11.20;99.90;;;;;;5041277;28;20123;-33
2023/02/03 10:46:42;;;;;;;7.43;1.90;;;11.20;99.90;;;;;;5040049;28;20021;-33
2023/02/03 10:49:10;;;;;;;7.35;1.65;;;11.20;99.90;;;;;;5041168;28;20037;-33
2023/02/03 10:51:40;;;;;;;7.32;1.80;;;11.20;99.90;;;;;;5040565;28;20032;-33
2023/02/03 10:54:30;;;;;;;5.80;1.80;;;11.20;99.90;;;;;;5039964;28;20037;-33
2023/02/03 10:57:04;;;;;;;6.75;1.85;;;11.30;99.90;;;;;;5040987;28;20017;-33
2023/02/03 10:59:33;;;;;;;7.10;2.13;;;11.20;99.90;;;;;;5040315;28;20048;-34
2023/02/03 11:02:05;;;;;;;8.60;2.13;;;11.20;99.90;;;;;;5040257;28;20713;-34
2023/02/03 11:04:32;;;;;;;6.72;2.10;;;11.30;99.90;;;;;;5040360;28;20029;-34
2023/02/03 11:07:02;;;;;;;5.72;1.98;;;11.30;99.90;;;;;;5039969;28;20159;-34
2023/02/03 11:09:41;;;;;;;8.23;1.58;;;11.30;99.90;;;;;;5041175;28;20064;-34
2023/02/03 11:12:11;;;;;;;7.22;1.92;;;11.30;99.90;;;;;;5040221;28;20032;-34
2023/02/03 11:14:39;;;;;;;7.20;2.03;;;11.30;99.90;;;;;;5039857;28;20150;-34
2023/02/03 11:17:14;;;;;;;4.38;2.08;;;11.40;99.90;;;;;;5040643;28;20071;-34
2023/02/03 11:19:43;;;;;;;8.38;2.30;;;11.40;99.90;;;;;;5040327;28;20047;-34
2023/02/03 11:22:09;;;;;;;6.10;1.95;;;11.40;99.90;;;;;;5039494;28;20032;-34
2023/02/03 11:24:38;;;;;;;8.95;2.30;;;11.40;99.90;;;;;;5036583;28;20040;-34
2023/02/03 11:27:15;;;;;;;6.05;1.70;;;11.40;99.90;;;;;;5039813;28;20032;-34
2023/02/03 11:29:44;;;;;;;6.50;1.90;;;11.40;99.90;;;;;;5039876;28;20052;-33
2023/02/03 11:32:40;;;;;;;6.53;1.77;;;11.40;99.90;;;;;;5038619;28;20052;-33
2023/02/03 11:35:21;;;;;;;4.00;1.63;;;11.50;99.90;;;;;;5036695;28;20077;-34
2023/02/03 11:37:58;;;;;;;7.47;2.10;;;11.50;99.90;;;;;;5040092;28;20036;-34
2023/02/03 11:40:27;;;;;;;7.88;2.05;;;11.50;99.90;;;;;;5040303;28;20039;-34
2023/02/03 11:42:55;;;;;;;5.82;1.98;;;11.50;99.90;;;;;;5039280;28;20086;-37
2023/02/03 11:45:40;;;;;;;8.85;2.05;;;11.60;99.90;;;;;;5040702;28;20035;-34
2023/02/03 11:48:16;;;;;;;5.55;2.00;;;11.60;99.90;;;;;;5040055;28;20040;-32
2023/02/03 11:51:11;;;;;;;4.70;1.52;;;11.60;99.90;;;;;;5040409;28;20029;-33
2023/02/03 11:53:40;;;;;;;8.05;2.60;;;11.60;99.90;;;;;;5040330;28;20025;-33
2023/02/03 11:56:11;;;;;;;8.82;2.38;;;11.60;99.90;;;;;;5029224;28;20038;-33
2023/02/03 11:58:52;;;;;;;6.70;2.25;;;11.60;99.90;;;;;;5040321;28;20028;-33
2023/02/03 12:01:17;;;;;;;9.45;2.72;;;11.60;99.90;;;;;;5029688;28;20025;-33
2023/02/03 12:03:51;;;;;;;8.15;1.90;;;11.70;99.90;;;;;;5038909;28;20032;-34
2023/02/03 12:06:23;;;;;;;5.00;1.80;;;11.70;99.90;;;;;;5039881;28;20028;-33
2023/02/03 12:09:26;;;;;;;6.13;1.80;;;11.70;99.90;;;;;;5039983;28;20133;-34
2023/02/03 12:11:58;;;;;;;8.07;1.85;;;11.70;99.90;;;;;;5030907;28;20040;-34
2023/02/03 12:14:38;;;;;;;6.70;1.85;;;11.70;99.90;;;;;;5039627;28;20051;-34
2023/02/03 12:17:25;;;;;;;6.30;1.80;;;11.70;99.90;;;;;;5039103;28;20815;-33
2023/02/03 12:20:22;;;;;;;7.43;1.85;;;11.70;99.90;;;;;;5039617;28;20038;-34
2023/02/03 12:22:56;;;;;;;8.98;2.20;;;11.70;99.90;;;;;;5039051;28;20049;-33
2023/02/03 12:25:39;;;;;;;6.50;1.98;;;11.70;99.90;;;;;;5043798;28;20017;-33
2023/02/03 12:28:14;;;;;;;6.95;1.80;;;11.60;99.90;;;;;;5043750;28;20108;-33
2023/02/03 12:30:52;;;;;;;10.05;2.58;;;11.60;99.90;;;;;;5042515;28;20548;-33
2023/02/03 12:33:24;;;;;;;6.07;2.03;;;11.50;99.90;;;;;;5042919;28;20130;-33
2023/02/03 12:36:10;;;;;;;8.00;1.70;;;11.30;99.90;;;;;;5042731;28;20029;-33
2023/02/03 12:38:50;;;;;;;7.38;1.90;;;11.20;99.90;;;;;;5043068;28;20267;-34
2023/02/03 12:41:25;;;;;;;5.13;2.10;;;11.10;99.90;;;;;;5043268;28;20422;-33
2023/02/03 12:43:57;;;;;;;4.85;1.63;;;11.10;99.90;;;;;;5043994;28;20029;-35
2023/02/03 12:46:39;;;;;;;6.90;2.00;;;11.00;99.90;;;;;;5043824;28;20036;-33
2023/02/03 12:49:17;;;;;;;6.07;2.28;;;10.90;99.90;;;;;;5043268;28;20036;-33
2023/02/03 12:52:05;;;;;;;4.15;1.70;;;10.90;99.90;;;;;;5042978;28;20031;-33
2023/02/03 12:54:44;;;;;;;5.22;1.95;;;10.80;99.90;;;;;;5033563;28;20537;-35
2023/02/03 12:57:38;;;;;;;9.38;2.50;;;10.70;99.90;;;;;;5043065;28;20573;-34
2023/02/03 13:00:20;;;;;;;15.60;2.70;;;10.50;99.90;;;;;;5042399;28;20060;-34
2023/02/03 13:03:08;;;;;;;8.95;2.10;;;10.30;99.90;;;;;;5042310;28;20491;-33
2023/02/03 13:05:45;;;;;;;8.48;2.30;;;10.10;99.90;;;;;;5041863;28;20159;-34
2023/02/03 13:08:21;;;;;;;11.90;3.20;;;9.90;99.90;;;;;;5040530;28;20804;-33